Kenai Municipal Airport

About
Name: Kenai Municipal Airport
Identifier:  ENA/PAEN
Serves:  Kenai, Alaska
Owner:  City of Kenai
Public/Private:  Public
Local Time:  19. Aug 02:36 AKDT
Description: Kenai Municipal Airport is a city-owned, public-use airport located in Kenai, a city in the Kenai Peninsula Borough of the U.S. state of Alaska.
Source: Wikipedia
Location
Runways
Identifier Length (m/ft) Surface
2L/20R 7,855/7,855 Asphalt
2R/20L 1,980/1,980 Gravel
2W/20W 4,600/4,600 Water
Flights per Day
35 flights
Distance: 95km (59mi)
Punctuality
82% (6 flights per day delayed)
Delay Average: 16 minutes
Current Weather
 12 C (Humidity: 58%)
  3kt (5km/h / 3mph) from 330°
  16km (10 mi.)
 
 METAR PAEN 190853Z AUTO 33003KT 10SM CLR 12/04 A2998 RMK AO2 SLP152 T01170044 402000106 53003 TSNO

Current Flights

Departures
Arrivals

Current Delays

Departures
N/A
Arrivals
N/A

Destinations

Top Destinations
Airport Flights
per week
Seats
per week
  Anchorage (ANC) 110 2,798 15 399
  Anchorage (MRI) 0 - 0 0
  King Salmon (AKN) 0 - 0 0

Airlines & Planes

Top Airlines
Airline Flights
per Day
Seats
per Day
  Era Alaska 10 400
  Empire Airlines 1 -
  Federal Express (FedEx) 1 -1
Grant Aviation 0 -
Alaska Central Express 0 -
Top Plane Types
Model Flights Seats
Bombardier Dash 8-100 10.7/day 397/day 397.1333333333333
Cessna C208 4.7/day - -1.0666666666666667
Beech 1900D 0.2/day - 0
Beech B200 Super King Air 0.1/day - 0
Bombardier Dash 8-400 0.1/day 3/day 3.7